Bladensburg, Iowa
Current Conditions -  °F | °C
As of 9:53 AM on Saturday 25 Oct 2014 (Local Time) from KOTM Reporting Station
Clear Clear  
Wind Chill: 60°   Ceiling: Unl
Heat Index: 60°   Visibility: 10mi
Dew Point: 48°   Wind: 7mph
Humidity: 64%   Direction: 350°N
Pressure: 30.07"   Gusts: NA
Location:  41.0803°N, 92.3054°W
Report Text: KOTM 251453Z AUTO 35006KT 10SM CLR 16/09 A3007 RMK AO2 SLP182 T01560089 52023
Loading
Personal Weather Stations






























Interactive Weather Map
Tropical Storm Tracking
New forecast layout! Learn more

10-Day Weather Forecast

Advertisements
Track Severe Weather on mobile